Latest Coastal Weather Observations for Troughton Island

IDD60701

Issued at 10:31 pm CST Saturday 13 February 2016 (issued every 10 minutes, with the page automatically refreshed every 10 minutes)

About coastal observations | Map of coastal stations | Coastal observations for NT | Marine services | Other Formats
Station Details ID: 001007 Name: TROUGHTON ISLAND Lat: -13.75 Lon: 126.15 Height: 6.0 m
Data from the previous 72 hours. | See also: Recent months at Troughton Island
Date/Time
CST
Temp

°C
Wind Pressure Rain
since 9am
mm
Weather Cloud Vis
km
Sea
Height
m
Swell
Dir
 
Speed
knots
Gust
knots
hPa Trend Height
m
Period
s
Dir
13/10:30pm 29.4 WSW 12 15 1010.8 - 0.0 - - - - - - -
13/10:00pm 29.4 WSW 14 17 1010.7 - 0.0 - - - - - - -
13/09:30pm 29.4 WSW 14 16 1010.4 - 0.0 - - - - - - -
13/09:00pm 29.4 W 12 14 1010.0 - 0.0 - - - - - - -
13/08:30pm 29.5 W 13 14 1009.1 - 0.0 - - - - - - -
13/08:00pm 29.5 WSW 10 12 1008.9 - 0.0 - - - - - - -
13/07:30pm 29.7 W 11 12 1008.4 - 0.0 - - - - - - -
13/07:00pm 30.3 W 12 14 1008.0 - 0.0 - - - - - - -
13/06:30pm 30.7 W 13 14 1007.7 - 0.0 - - - - - - -
13/06:00pm 31.0 W 13 14 1007.8 - 0.0 - - - - - - -
13/05:30pm 31.0 W 13 15 1007.7 - 0.0 - - - - - - -
13/05:00pm 31.3 W 13 15 1007.9 - 0.0 - - - - - - -
13/04:30pm 31.7 W 13 14 1008.1 - 0.0 - - - - - - -
13/04:00pm 32.2 W 13 15 1008.1 - 0.0 - - - - - - -
13/03:30pm 32.1 W 12 14 1008.2 - 0.0 - - - - - - -
13/03:00pm 31.9 W 11 12 1008.3 - 0.0 - - - - - - -
13/02:30pm 31.7 W 10 12 1008.4 - 0.0 - - - - - - -
13/02:00pm 31.7 WSW 9 10 1008.7 - 0.0 - - - - - - -
13/01:30pm 31.6 WSW 9 11 1009.0 - 0.0 - - - - - - -
13/01:00pm 31.6 WSW 9 11 1009.3 - 0.0 - - - - - - -
13/12:30pm 31.4 WSW 9 11 1009.7 - 0.0 - - - - - - -
13/12:00pm 31.3 WSW 9 11 1010.2 - 0.0 - - - - - - -
13/11:30am 31.2 WSW 10 11 1010.4 - 0.0 - - - - - - -
13/11:00am 30.9 WSW 10 12 1010.6 - 0.0 - - - - - - -
13/10:30am 30.5 WSW 11 13 1010.9 - 0.0 - - - - - - -
13/10:00am 30.2 WSW 10 12 1011.0 - 0.0 - - - - - - -
13/09:30am 30.2 SW 12 14 1010.9 - 0.0 - - - - - - -
13/09:00am 29.8 WSW 14 17 1010.7 - 0.0 - - - - - - -
13/08:30am 29.2 WSW 15 18 1010.4 - 0.0 - - - - - - -
13/08:00am 29.0 W 15 18 1010.0 - 0.0 - - - - - - -
13/07:30am 28.5 W 13 15 1009.8 - 0.0 - - - - - - -
13/07:00am 28.3 W 13 15 1009.5 - 0.0 - - - - - - -
13/06:30am 28.3 WSW 11 14 1009.3 - 0.0 - - - - - - -
13/06:00am 28.4 WSW 13 15 1009.0 - 0.0 - - - - - - -
13/05:30am 28.5 W 13 15 1008.7 - 0.0 - - - - - - -
13/05:00am 28.8 WSW 13 15 1008.8 - 0.0 - - - - - - -
13/04:30am 28.9 WSW 12 14 1008.8 - 0.0 - - - - - - -
13/04:00am 29.0 WSW 10 11 1008.8 - 0.0 - - - - - - -
13/03:30am 28.9 W 14 17 1008.6 - 0.0 - - - - - - -
13/03:00am 29.0 W 14 16 1008.6 - 0.0 - - - - - - -
13/02:30am 28.9 WSW 12 14 1008.9 - 0.0 - - - - - - -
13/02:00am 29.1 W 13 16 1009.3 - 0.0 - - - - - - -
13/01:30am 29.1 WSW 12 13 1009.3 - 0.0 - - - - - - -
13/01:00am 29.1 WSW 11 13 1009.8 - 0.0 - - - - - - -
13/12:30am 29.2 WSW 11 13 1010.0 - 0.0 - - - - - - -
13/12:00am 29.0 SW 9 11 1010.4 - 0.0 - - - - - - -
 
Date/Time
CST
Temp

°C
Wind Pressure Rain
since 9am
mm
Weather Cloud Vis
km
Sea
Height
m
Swell
Dir
 
Speed
knots
Gust
knots
hPa Trend Height
m
Period
s
Dir
12/11:30pm 29.0 SW 9 11 1010.5 - 0.0 - - - - - - -
12/11:00pm 29.1 SW 10 11 1010.3 - 0.0 - - - - - - -
12/10:30pm 29.3 WSW 13 17 1010.1 - 0.0 - - - - - - -
12/10:00pm 29.3 WSW 14 16 1009.8 - 0.0 - - - - - - -
12/09:30pm 29.5 WSW 13 17 1009.5 - 0.0 - - - - - - -
12/09:00pm 29.2 W 14 17 1009.4 - 0.0 - - - - - - -
12/08:30pm 29.3 WSW 11 13 1008.9 - 0.0 - - - - - - -
12/08:00pm 29.3 SW 12 15 1008.4 - 0.0 - - - - - - -
12/07:30pm 29.7 SW 13 16 1008.5 - 0.0 - - - - - - -
12/07:00pm 30.3 WSW 15 18 1008.2 - 0.0 - - - - - - -
12/06:30pm 30.9 W 14 18 1007.8 - 0.0 - - - - - - -
12/06:00pm 31.0 W 17 19 1007.0 - 0.0 - - - - - - -
12/05:30pm 31.3 W 17 19 1006.7 - 0.0 - - - - - - -
12/05:00pm 31.5 W 17 21 1006.5 - 0.0 - - - - - - -
12/04:30pm 31.9 W 18 21 1006.5 - 0.0 - - - - - - -
12/04:00pm 31.7 W 17 19 1006.5 - 0.0 - - - - - - -
12/03:30pm 31.7 W 16 19 1006.8 - 0.0 - - - - - - -
12/03:00pm 31.9 W 13 15 1007.1 - 0.0 - - - - - - -
12/02:30pm 31.9 WSW 14 16 1007.7 - 0.0 - - - - - - -
12/02:00pm 32.0 WSW 13 15 1007.9 - 0.0 - - - - - - -
12/01:30pm 32.1 WSW 13 16 1008.1 - 0.0 - - - - - - -
12/01:00pm 31.8 WSW 12 16 1008.5 - 0.0 - - - - - - -
12/12:30pm 31.8 WSW 12 13 1008.7 - 0.0 - - - - - - -
12/12:00pm 31.5 WSW 11 13 1009.1 - 0.0 - - - - - - -
12/11:30am 31.4 WSW 13 15 1009.0 - 0.0 - - - - - - -
12/11:00am 31.5 WSW 12 14 1009.3 - 0.0 - - - - - - -
12/10:30am 31.2 W 9 11 1009.5 - 4.2 - - - - - - -
12/10:00am 30.6 W 8 9 1009.7 - 4.2 - - - - - - -
12/09:30am 30.4 WSW 6 8 1009.6 - 4.2 - - - - - - -
12/09:00am 29.9 SSW 5 6 1009.6 - 4.2 - - - - - - -
12/08:30am 29.6 SE 5 6 1009.8 - 4.2 - - - - - - -
12/08:00am 29.2 SE 6 9 1009.9 - 4.2 - - - - - - -
12/07:30am 28.8 SE 11 13 1009.6 - 4.2 - - - - - - -
12/07:00am 29.2 SSE 10 12 1009.3 - 4.2 - - - - - - -
12/06:30am 29.5 SSW 9 11 1008.9 - 4.2 - - - - - - -
12/06:00am 29.4 SW 12 15 1008.2 - 4.2 - - - - - - -
12/05:30am 29.5 SW 12 14 1007.8 - 4.2 - - - - - - -
12/05:00am 29.4 SW 13 16 1007.7 - 4.2 - - - - - - -
12/04:30am 29.4 WSW 13 16 1007.3 - 4.2 - - - - - - -
12/04:00am 29.6 WSW 16 19 1007.1 - 4.2 - - - - - - -
12/03:30am 29.6 WSW 15 18 1007.2 - 4.2 - - - - - - -
12/03:00am 29.6 W 15 19 1007.2 - 4.2 - - - - - - -
12/02:30am 29.4 W 16 18 1007.4 - 4.2 - - - - - - -
12/02:00am 29.3 W 14 16 1007.5 - 4.2 - - - - - - -
12/01:30am 29.2 W 14 16 1007.8 - 4.2 - - - - - - -
12/01:00am 29.2 W 12 14 1008.4 - 4.2 - - - - - - -
12/12:30am 29.0 WSW 11 13 1008.8 - 4.2 - - - - - - -
12/12:00am 28.7 W 9 10 1008.7 - 4.2 - - - - - - -
 
Date/Time
CST
Temp

°C
Wind Pressure Rain
since 9am
mm
Weather Cloud Vis
km
Sea
Height
m
Swell
Dir
 
Speed
knots
Gust
knots
hPa Trend Height
m
Period
s
Dir
11/11:30pm 28.2 WSW 7 9 1008.9 - 4.2 - - - - - - -
11/11:00pm 27.8 SSW 2 4 1009.0 - 4.2 - - - - - - -
11/10:30pm 28.2 SSE 6 8 1009.3 - 4.2 - - - - - - -
11/10:00pm 28.7 SW 12 15 1009.5 - 4.2 - - - - - - -
11/09:30pm 28.8 WSW 14 16 1008.2 - 4.2 - - - - - - -
11/09:00pm 28.7 W 15 17 1007.3 - 4.2 - - - - - - -
11/08:30pm 28.6 WNW 16 19 1006.8 - 4.2 - - - - - - -
11/08:00pm 28.3 WNW 15 17 1006.7 - 4.2 - - - - - - -
11/07:30pm 27.5 WNW 14 17 1006.5 - 4.2 Recent precip. - - - - - -
11/07:00pm 26.6 NNW 13 16 1006.5 - 4.2 - - - - - - -
11/06:30pm 25.9 NNE 6 10 1007.3 - 3.6 - - - - - - -
11/06:00pm 25.0 ESE 11 21 1007.8 - 3.0 - - - - - - -
11/05:30pm 28.7 SSW 16 40 1007.3 - 0.0 - - - - - - -
11/05:29pm 29.4 SW 14 29 1007.3 - 0.0 - - - - - - -
11/05:00pm 32.1 W 16 19 1005.4 - 0.0 - - - - - - -
11/04:30pm 31.9 W 17 20 1004.5 - 0.0 - - - - - - -
11/04:00pm 31.7 W 17 20 1004.9 - 0.0 - - - - - - -
11/03:30pm 31.9 W 16 19 1005.2 - 0.0 - - - - - - -
11/03:00pm 31.9 W 16 19 1005.5 - 0.0 - - - - - - -
11/02:30pm 32.3 W 15 17 1005.9 - 0.0 - - - - - - -
11/02:00pm 32.1 W 15 17 1006.1 - 0.0 - - - - - - -
11/01:30pm 32.2 W 13 15 1006.3 - 0.0 - - - - - - -
11/01:00pm 32.2 W 13 14 1006.7 - 0.0 - - - - - - -
11/12:30pm 32.0 W 12 15 1007.2 - 0.0 - - - - - - -
11/12:00pm 31.7 WSW 15 18 1007.3 - 0.0 - - - - - - -
11/11:30am 31.6 WSW 14 17 1007.6 - 0.0 - - - - - - -
11/11:00am 31.4 WSW 13 16 1008.0 - 0.0 - - - - - - -
11/10:30am 31.5 WSW 12 17 1008.3 - - - - - - - - -
11/10:00am 30.9 WSW 12 15 1008.5 - - - - - - - - -
11/09:30am 30.7 WSW 12 16 1008.6 - - - - - - - - -
11/09:00am 30.6 WSW 15 18 1008.0 - - - - - - - - -
11/08:30am 30.1 WSW 14 17 1007.8 - - - - - - - - -
11/08:00am 29.7 WSW 16 19 1007.6 - - - - - - - - -
11/07:30am 29.4 W 16 18 1006.9 - - - - - - - - -
11/07:00am 29.4 WSW 15 18 1006.9 - - - - - - - - -
11/06:30am 29.2 WSW 12 15 1007.1 - - - - - - - - -
11/06:00am 29.4 SW 12 15 1007.3 - - - - - - - - -
11/05:30am 29.7 SSW 15 19 1007.4 - - - - - - - - -
11/05:00am 29.4 WSW 18 22 1006.6 - - - - - - - - -
11/04:30am 29.5 WSW 19 23 1006.2 - - - - - - - - -
11/04:00am 29.5 WSW 19 23 1006.4 - 13.2 - - - - - - -
11/03:30am 29.3 W 17 21 1006.0 - 13.2 - - - - - - -
11/03:00am 29.3 W 12 14 1006.9 - 13.2 - - - - - - -
11/02:30am 29.3 W 14 16 1007.0 - 13.2 - - - - - - -
11/02:00am 29.3 WSW 15 17 1007.1 - 13.2 - - - - - - -
11/01:30am 29.4 WSW 15 18 1007.3 - 13.2 - - - - - - -
11/01:00am 29.6 WSW 15 19 1007.1 - 13.2 - - - - - - -
11/12:30am 29.7 WSW 16 20 1007.4 - 13.2 - - - - - - -

Other Formats:

Comma delimited format used in spreadsheet applications
http://www.bom.gov.au/fwo/IDD60701/IDD60701.94102.axf

JavaScript Object Notation format (JSON) in row-major order
http://www.bom.gov.au/fwo/IDD60701/IDD60701.94102.json